Time;durP1;ratioP1;P1;durP2;ratioP2;P2;SDS_P1;SDS_P2;PMS_P1;PMS_P2;Temp;Humidity;BMP_temperature;BMP_pressure;BME280_temperature;BME280_humidity;BME280_pressure;Samples;Min_cycle;Max_cycle;Signal;HPM_P1;HPM_P2
2023/02/27 00:01:52;;;;;;;10.77;5.50;;;-1.20;99.90;;;;;;5073798;28;20568;-77
2023/02/27 00:04:21;;;;;;;8.30;4.83;;;-1.30;99.90;;;;;;5072800;28;20604;-76
2023/02/27 00:06:47;;;;;;;7.80;4.70;;;-1.30;99.90;;;;;;5072767;28;20198;-76
2023/02/27 00:09:14;;;;;;;6.43;4.33;;;-1.40;99.90;;;;;;5073961;28;20696;-75
2023/02/27 00:11:42;;;;;;;8.50;4.57;;;-1.40;99.90;;;;;;5056142;28;20676;-75
2023/02/27 00:14:09;;;;;;;6.97;4.70;;;-1.50;99.90;;;;;;5073627;28;20314;-76
2023/02/27 00:16:36;;;;;;;8.07;4.83;;;-1.40;99.90;;;;;;5073522;28;20233;-77
2023/02/27 00:19:03;;;;;;;10.00;5.23;;;-1.40;99.90;;;;;;5074132;28;20225;-76
2023/02/27 00:21:32;;;;;;;8.17;5.10;;;-1.40;99.90;;;;;;5074155;28;20565;-77
2023/02/27 00:23:59;;;;;;;6.43;4.77;;;-1.60;99.90;;;;;;5071687;28;20313;-74
2023/02/27 00:26:25;;;;;;;8.63;5.30;;;-1.60;99.90;;;;;;5073039;28;20194;-75
2023/02/27 00:28:52;;;;;;;8.23;5.03;;;-1.70;99.90;;;;;;5072451;28;20249;-76
2023/02/27 00:31:19;;;;;;;8.07;5.50;;;-1.70;99.90;;;;;;5072924;28;20198;-74
2023/02/27 00:33:46;;;;;;;9.13;4.93;;;-1.60;99.90;;;;;;5073699;28;20561;-76
2023/02/27 00:36:13;;;;;;;9.43;5.00;;;-1.60;99.90;;;;;;5073129;28;20218;-76
2023/02/27 00:38:41;;;;;;;9.63;5.53;;;-1.80;99.90;;;;;;5072921;28;20202;-76
2023/02/27 00:41:08;;;;;;;8.03;4.70;;;-2.00;99.90;;;;;;5073473;28;20205;-77
2023/02/27 00:43:35;;;;;;;6.77;4.73;;;-2.10;99.90;;;;;;5073801;28;20218;-76
2023/02/27 00:46:02;;;;;;;7.47;4.83;;;-2.00;99.90;;;;;;5073350;28;20273;-77
2023/02/27 00:48:29;;;;;;;11.87;5.40;;;-1.90;99.90;;;;;;5073339;28;20202;-76
2023/02/27 00:50:56;;;;;;;9.63;5.10;;;-1.90;99.90;;;;;;5072351;28;20207;-77
2023/02/27 00:53:23;;;;;;;8.43;5.30;;;-1.80;99.90;;;;;;5073432;28;20229;-76
2023/02/27 00:55:51;;;;;;;8.77;5.07;;;-1.80;99.90;;;;;;5072564;28;20202;-76
2023/02/27 00:58:18;;;;;;;8.53;4.77;;;-1.80;99.90;;;;;;5073505;28;20209;-77
2023/02/27 01:00:44;;;;;;;8.47;5.33;;;-1.80;99.90;;;;;;5073320;28;20563;-76
2023/02/27 01:03:11;;;;;;;7.80;4.93;;;-2.00;99.90;;;;;;5073020;28;20631;-75
2023/02/27 01:05:38;;;;;;;10.73;5.40;;;-2.30;99.90;;;;;;5073470;28;20577;-77
2023/02/27 01:08:05;;;;;;;8.40;4.87;;;-2.20;99.90;;;;;;5071228;28;20213;-75
2023/02/27 01:10:32;;;;;;;9.63;5.27;;;-2.20;99.90;;;;;;5071213;28;20194;-74
2023/02/27 01:13:00;;;;;;;8.07;5.40;;;-2.40;99.90;;;;;;5073021;28;20209;-75
2023/02/27 01:15:27;;;;;;;8.63;5.37;;;-2.40;99.90;;;;;;5071015;28;20704;-76
2023/02/27 01:17:53;;;;;;;7.20;5.13;;;-2.50;99.90;;;;;;5072659;28;20232;-76
2023/02/27 01:20:20;;;;;;;8.00;5.03;;;-2.50;99.90;;;;;;5070806;28;20205;-74
2023/02/27 01:22:47;;;;;;;8.80;5.73;;;-2.30;99.90;;;;;;5072588;28;20209;-76
2023/02/27 01:25:14;;;;;;;8.57;4.97;;;-2.10;99.90;;;;;;5072203;28;20226;-77
2023/02/27 01:27:41;;;;;;;8.50;5.30;;;-2.00;99.90;;;;;;5070945;28;20202;-76
2023/02/27 01:30:11;;;;;;;10.90;5.70;;;-2.00;99.90;;;;;;5072133;28;20206;-76
2023/02/27 01:32:38;;;;;;;8.00;5.00;;;-2.00;99.90;;;;;;5072850;28;20700;-75
2023/02/27 01:35:06;;;;;;;9.27;4.93;;;-2.10;99.90;;;;;;5073129;28;20238;-77
2023/02/27 01:37:33;;;;;;;7.23;5.07;;;-2.10;99.90;;;;;;5072104;28;20689;-77
2023/02/27 01:39:59;;;;;;;8.80;5.60;;;-2.00;99.90;;;;;;5072509;28;20224;-77
2023/02/27 01:42:28;;;;;;;7.40;4.90;;;-2.00;99.90;;;;;;5071832;28;20512;-77
2023/02/27 01:45:29;;;;;;;7.93;4.80;;;-2.00;99.90;;;;;;5071670;28;20217;-77
2023/02/27 01:48:03;;;;;;;7.80;5.00;;;-1.90;99.90;;;;;;5104234;22;20243;-89
2023/02/27 01:50:31;;;;;;;8.70;4.90;;;-1.90;99.90;;;;;;5091563;28;20201;-88
2023/02/27 01:53:01;;;;;;;6.47;4.83;;;-1.90;99.90;;;;;;5091880;28;20204;-89
2023/02/27 01:55:30;;;;;;;9.33;4.53;;;-1.90;99.90;;;;;;5092615;28;20684;-88
2023/02/27 01:57:57;;;;;;;8.47;5.33;;;-1.90;99.90;;;;;;5072764;28;20230;-89
2023/02/27 02:00:25;;;;;;;9.13;5.00;;;-1.90;99.90;;;;;;5071734;28;20213;-89
2023/02/27 02:03:00;;;;;;;8.73;5.10;;;-1.80;99.90;;;;;;5072393;28;20212;-88
2023/02/27 02:05:27;;;;;;;8.90;5.27;;;-1.90;99.90;;;;;;5071952;28;20201;-89
2023/02/27 02:07:54;;;;;;;8.10;4.90;;;-1.80;99.90;;;;;;5072793;28;20218;-88
2023/02/27 02:10:22;;;;;;;8.40;5.13;;;-1.80;99.90;;;;;;5072196;28;20210;-88
2023/02/27 02:12:50;;;;;;;9.77;5.33;;;-1.80;99.90;;;;;;5072945;28;20194;-88
2023/02/27 02:15:17;;;;;;;6.90;4.40;;;-1.80;99.90;;;;;;5071225;28;20655;-89
2023/02/27 02:17:52;;;;;;;7.33;4.50;;;-1.90;99.90;;;;;;5072917;28;20218;-89
2023/02/27 02:20:54;;;;;;;8.40;4.53;;;-1.90;99.90;;;;;;5070826;28;20208;-88
2023/02/27 02:23:59;;;;;;;7.10;4.73;;;-1.90;99.90;;;;;;5071257;28;20675;-88
2023/02/27 02:26:39;;;;;;;8.80;5.37;;;-1.90;99.90;;;;;;5072512;28;20229;-88
2023/02/27 02:29:51;;;;;;;6.83;4.77;;;-1.90;99.90;;;;;;5071980;28;20683;-88
2023/02/27 02:32:54;;;;;;;7.40;4.70;;;-1.90;99.90;;;;;;5056689;28;20206;-88
2023/02/27 02:36:01;;;;;;;8.27;4.70;;;-1.90;99.90;;;;;;5069602;28;20213;-88
2023/02/27 02:38:47;;;;;;;7.20;4.73;;;-2.00;99.90;;;;;;5071428;28;20222;-88
2023/02/27 02:41:20;;;;;;;8.00;5.17;;;-2.10;99.90;;;;;;5072169;28;20217;-88
2023/02/27 02:43:58;;;;;;;8.13;4.73;;;-2.20;99.90;;;;;;5071582;28;20221;-88
2023/02/27 02:46:31;;;;;;;8.67;4.57;;;-2.30;99.90;;;;;;5072301;28;20233;-88
2023/02/27 02:49:05;;;;;;;7.70;4.70;;;-2.30;99.90;;;;;;5072048;28;20202;-88
2023/02/27 02:51:36;;;;;;;8.00;4.90;;;-2.60;99.90;;;;;;5071763;28;20222;-88
2023/02/27 02:54:10;;;;;;;7.53;4.13;;;-2.50;99.90;;;;;;5071669;28;20214;-89
2023/02/27 02:56:40;;;;;;;9.30;4.50;;;-2.40;99.90;;;;;;5071710;28;20253;-89
2023/02/27 02:59:12;;;;;;;8.80;5.13;;;-2.60;99.90;;;;;;5072126;28;20206;-88
2023/02/27 03:01:43;;;;;;;9.77;4.50;;;-3.00;99.90;;;;;;5071842;28;20213;-88
2023/02/27 03:04:14;;;;;;;8.17;4.70;;;-2.90;99.90;;;;;;5051014;28;20199;-88
2023/02/27 03:06:46;;;;;;;7.53;4.57;;;-2.90;99.90;;;;;;5050762;28;20223;-89
2023/02/27 03:09:19;;;;;;;8.83;4.73;;;-2.70;99.90;;;;;;5059796;28;20202;-88
2023/02/27 03:11:49;;;;;;;5.43;4.07;;;-2.60;99.90;;;;;;5071382;28;20209;-87
2023/02/27 03:14:22;;;;;;;9.20;4.83;;;-2.70;99.90;;;;;;5071227;28;20206;-88
2023/02/27 03:16:52;;;;;;;8.13;4.83;;;-2.80;99.90;;;;;;5071503;28;20218;-87
2023/02/27 03:19:23;;;;;;;7.97;4.83;;;-2.70;99.90;;;;;;5071256;28;20710;-88
2023/02/27 03:21:56;;;;;;;8.83;5.40;;;-2.70;99.90;;;;;;5071470;28;20205;-88
2023/02/27 03:24:27;;;;;;;10.00;4.80;;;-2.60;99.90;;;;;;5070712;28;20220;-88
2023/02/27 03:26:58;;;;;;;10.10;5.20;;;-2.60;99.90;;;;;;5071586;28;20218;-88
2023/02/27 03:29:31;;;;;;;7.43;4.73;;;-2.60;99.90;;;;;;5070101;28;20524;-88
2023/02/27 03:32:01;;;;;;;10.83;5.20;;;-2.50;99.90;;;;;;5072310;28;20199;-88
2023/02/27 03:34:33;;;;;;;11.60;6.30;;;-2.60;99.90;;;;;;5075272;28;20206;-88
2023/02/27 03:37:06;;;;;;;10.23;6.20;;;-2.50;99.90;;;;;;5075118;28;20226;-88
2023/02/27 03:39:44;;;;;;;8.97;5.47;;;-2.50;99.90;;;;;;5075250;28;20199;-88
2023/02/27 03:42:19;;;;;;;8.00;5.13;;;-2.40;99.90;;;;;;5073043;28;20198;-87
2023/02/27 03:44:55;;;;;;;7.40;5.30;;;-2.50;99.90;;;;;;5074982;28;20257;-88
2023/02/27 03:47:22;;;;;;;9.30;5.33;;;-2.50;99.90;;;;;;5073673;28;20260;-87
2023/02/27 03:49:50;;;;;;;10.90;5.30;;;-2.60;99.90;;;;;;5070274;28;20578;-88
2023/02/27 03:52:18;;;;;;;7.03;4.50;;;-2.60;99.90;;;;;;5074801;28;20210;-87
2023/02/27 03:54:51;;;;;;;7.13;4.63;;;-2.60;99.90;;;;;;5075225;28;20675;-88
2023/02/27 03:57:18;;;;;;;9.80;4.90;;;-2.70;99.90;;;;;;5074902;28;20230;-89
2023/02/27 03:59:45;;;;;;;8.20;4.87;;;-2.80;99.90;;;;;;5071368;28;20664;-88
2023/02/27 04:02:12;;;;;;;7.30;4.60;;;-3.00;99.90;;;;;;5054997;28;20203;-88
2023/02/27 04:04:39;;;;;;;11.40;5.70;;;-3.00;99.90;;;;;;5054954;28;20215;-88
2023/02/27 04:07:23;;;;;;;10.43;5.23;;;-2.80;99.90;;;;;;5054849;28;20250;-88
2023/02/27 04:10:26;;;;;;;9.90;5.40;;;-2.80;99.90;;;;;;5055283;28;20293;-90
2023/02/27 04:13:25;;;;;;;9.33;5.13;;;-2.70;99.90;;;;;;5044524;28;20998;-86
2023/02/27 04:16:19;;;;;;;10.73;5.63;;;-2.60;99.90;;;;;;5044269;28;20207;-87
2023/02/27 04:19:03;;;;;;;8.13;5.07;;;-2.80;99.90;;;;;;5054508;28;20227;-88
2023/02/27 04:21:34;;;;;;;10.20;5.47;;;-2.90;99.90;;;;;;5065003;28;20198;-87
2023/02/27 04:24:07;;;;;;;10.83;5.67;;;-2.80;99.90;;;;;;5073909;28;20202;-89
2023/02/27 04:26:40;;;;;;;8.07;5.03;;;-2.60;99.90;;;;;;5074509;28;20237;-86
2023/02/27 04:29:14;;;;;;;18.20;9.57;;;-2.70;99.90;;;;;;5074123;28;20203;-87
2023/02/27 04:31:46;;;;;;;15.23;8.27;;;-2.70;99.90;;;;;;5073822;28;20190;-87
2023/02/27 04:34:19;;;;;;;11.23;8.10;;;-2.70;99.90;;;;;;5074171;28;20214;-88
2023/02/27 04:36:50;;;;;;;11.10;6.07;;;-2.60;99.90;;;;;;5073960;28;20226;-87
2023/02/27 04:39:23;;;;;;;8.90;5.53;;;-2.60;99.90;;;;;;5073109;28;20690;-87
2023/02/27 04:41:56;;;;;;;10.77;5.47;;;-2.60;99.90;;;;;;5073350;28;20205;-88
2023/02/27 04:44:25;;;;;;;10.10;5.10;;;-2.60;99.90;;;;;;5073786;28;20208;-87
2023/02/27 04:46:54;;;;;;;10.30;5.73;;;-2.80;99.90;;;;;;5073705;28;20230;-87
2023/02/27 04:49:26;;;;;;;9.63;5.07;;;-2.70;99.90;;;;;;5073740;28;20198;-88
2023/02/27 04:52:00;;;;;;;7.83;5.03;;;-2.70;99.90;;;;;;5073814;28;20339;-87
2023/02/27 04:54:31;;;;;;;7.80;4.77;;;-2.70;99.90;;;;;;5074218;28;20206;-87
2023/02/27 04:57:02;;;;;;;7.80;4.87;;;-2.70;99.90;;;;;;5073590;28;20226;-87
2023/02/27 04:59:33;;;;;;;11.33;5.13;;;-2.70;99.90;;;;;;5073680;28;20218;-88
2023/02/27 05:02:05;;;;;;;8.80;5.33;;;-2.70;99.90;;;;;;5073488;28;20216;-87
2023/02/27 05:04:36;;;;;;;7.90;5.30;;;-2.70;99.90;;;;;;5073479;28;20203;-87
2023/02/27 05:07:08;;;;;;;10.60;5.33;;;-2.80;99.90;;;;;;5073481;28;20241;-87
2023/02/27 05:09:42;;;;;;;8.50;5.20;;;-2.80;99.90;;;;;;5073552;28;20210;-87
2023/02/27 05:12:17;;;;;;;11.53;5.70;;;-2.70;99.90;;;;;;5073185;28;20552;-87
2023/02/27 05:14:48;;;;;;;12.33;5.23;;;-2.70;99.90;;;;;;5073827;28;20566;-87
2023/02/27 05:17:20;;;;;;;11.30;5.17;;;-2.70;99.90;;;;;;5063040;28;20249;-87
2023/02/27 05:19:48;;;;;;;8.67;4.90;;;-2.70;99.90;;;;;;5064505;28;20208;-87
2023/02/27 05:22:24;;;;;;;9.50;5.20;;;-2.70;99.90;;;;;;5069042;28;20210;-87
2023/02/27 05:24:57;;;;;;;8.57;5.37;;;-2.70;99.90;;;;;;5072690;28;20210;-87
2023/02/27 05:27:33;;;;;;;11.00;5.47;;;-2.70;99.90;;;;;;5062973;28;20233;-87
2023/02/27 05:30:03;;;;;;;9.30;5.57;;;-2.70;99.90;;;;;;5051274;28;20218;-87
2023/02/27 05:32:36;;;;;;;9.37;5.50;;;-2.70;99.90;;;;;;5054735;28;20198;-87
2023/02/27 05:35:10;;;;;;;9.57;5.03;;;-2.70;99.90;;;;;;5052176;28;20583;-87
2023/02/27 05:37:43;;;;;;;7.13;5.40;;;-2.60;99.90;;;;;;5064603;28;20244;-87
2023/02/27 05:40:13;;;;;;;9.37;5.63;;;-2.60;99.90;;;;;;5072830;28;20598;-87
2023/02/27 05:42:47;;;;;;;7.93;5.73;;;-2.60;99.90;;;;;;5070718;28;20293;-87
2023/02/27 05:45:18;;;;;;;8.17;5.20;;;-2.60;99.90;;;;;;5072815;28;20589;-87
2023/02/27 05:47:52;;;;;;;9.23;5.13;;;-2.70;99.90;;;;;;5072319;28;20230;-87
2023/02/27 05:50:21;;;;;;;10.20;5.70;;;-2.70;99.90;;;;;;5071370;28;20210;-88
2023/02/27 05:52:50;;;;;;;8.50;5.83;;;-2.60;99.90;;;;;;5071405;28;20198;-87
2023/02/27 05:55:21;;;;;;;10.83;5.57;;;-2.70;99.90;;;;;;5072076;28;20214;-88
2023/02/27 05:57:53;;;;;;;10.23;5.43;;;-2.70;99.90;;;;;;5071430;28;20226;-87
2023/02/27 06:00:22;;;;;;;8.33;5.20;;;-2.80;99.90;;;;;;5072117;28;20582;-87
2023/02/27 06:02:49;;;;;;;9.63;5.33;;;-2.80;99.90;;;;;;5060213;28;20215;-87
2023/02/27 06:05:18;;;;;;;11.03;5.53;;;-2.70;99.90;;;;;;5052084;28;20218;-87
2023/02/27 06:07:45;;;;;;;9.70;5.60;;;-2.70;99.90;;;;;;5060410;28;20234;-87
2023/02/27 06:10:14;;;;;;;13.30;5.80;;;-2.70;99.90;;;;;;5063955;28;20216;-87
2023/02/27 06:12:41;;;;;;;8.50;5.33;;;-2.60;99.90;;;;;;5071209;28;20206;-87
2023/02/27 06:15:10;;;;;;;8.33;5.23;;;-2.70;99.90;;;;;;5072161;28;20279;-87
2023/02/27 06:17:37;;;;;;;7.43;4.87;;;-2.70;99.90;;;;;;5071788;28;20233;-87
2023/02/27 06:20:05;;;;;;;8.93;5.27;;;-2.80;99.90;;;;;;5072077;28;20210;-88
2023/02/27 06:22:32;;;;;;;7.87;4.93;;;-2.70;99.90;;;;;;5072024;28;20706;-87
2023/02/27 06:24:59;;;;;;;9.60;5.23;;;-2.70;99.90;;;;;;5072131;28;20663;-87
2023/02/27 06:27:26;;;;;;;10.77;5.37;;;-2.80;99.90;;;;;;5070410;28;20233;-87
2023/02/27 06:29:53;;;;;;;8.00;4.73;;;-3.00;99.90;;;;;;5071355;28;20260;-87
2023/02/27 06:32:24;;;;;;;8.37;4.87;;;-3.00;99.90;;;;;;5072047;28;20255;-87
2023/02/27 06:34:50;;;;;;;7.67;4.90;;;-2.90;99.90;;;;;;5072491;28;20217;-87
2023/02/27 06:37:17;;;;;;;10.13;7.00;;;-2.80;99.90;;;;;;5072212;28;20760;-88
2023/02/27 06:39:44;;;;;;;8.47;4.83;;;-2.70;99.90;;;;;;5071926;28;20620;-87
2023/02/27 06:42:11;;;;;;;10.43;5.30;;;-2.40;99.90;;;;;;5071468;28;20577;-87
2023/02/27 06:44:37;;;;;;;10.33;5.50;;;-2.40;99.90;;;;;;5071581;28;20206;-87
2023/02/27 06:47:04;;;;;;;14.13;5.43;;;-2.30;99.90;;;;;;5071326;28;20245;-87
2023/02/27 06:49:32;;;;;;;10.10;5.17;;;-2.40;99.90;;;;;;5063146;28;20207;-87
2023/02/27 06:51:59;;;;;;;7.93;5.10;;;-2.30;99.90;;;;;;5071244;28;20213;-87
2023/02/27 06:54:26;;;;;;;11.40;5.23;;;-2.50;99.90;;;;;;5063056;28;20202;-87
2023/02/27 06:56:53;;;;;;;9.00;4.90;;;-2.40;99.90;;;;;;5072085;28;20703;-87
2023/02/27 06:59:19;;;;;;;7.43;4.90;;;-2.30;99.90;;;;;;5071100;28;20253;-87
2023/02/27 07:01:47;;;;;;;6.70;4.37;;;-2.40;99.90;;;;;;5071173;28;20218;-87
2023/02/27 07:04:14;;;;;;;11.50;5.40;;;-2.20;99.90;;;;;;5072297;28;20216;-87
2023/02/27 07:06:43;;;;;;;14.97;7.10;;;-2.10;99.90;;;;;;5071369;28;20226;-87
2023/02/27 07:09:10;;;;;;;14.13;5.97;;;-2.10;99.90;;;;;;5075441;28;20220;-87
2023/02/27 07:11:37;;;;;;;11.83;6.63;;;-2.00;99.90;;;;;;5075016;28;20238;-87
2023/02/27 07:14:04;;;;;;;13.10;6.50;;;-1.80;99.90;;;;;;5075301;28;20206;-87
2023/02/27 07:16:30;;;;;;;12.70;6.47;;;-1.80;99.90;;;;;;5075483;28;20317;-87
2023/02/27 07:18:57;;;;;;;10.67;6.00;;;-1.70;99.90;;;;;;5075237;28;20214;-87
2023/02/27 07:21:24;;;;;;;10.93;5.67;;;-1.90;99.90;;;;;;5074905;28;20218;-87
2023/02/27 07:23:52;;;;;;;10.37;5.57;;;-1.70;99.90;;;;;;5074850;28;20228;-87
2023/02/27 07:26:19;;;;;;;9.80;5.47;;;-1.60;99.90;;;;;;5075512;28;20301;-87
2023/02/27 07:28:46;;;;;;;10.40;5.13;;;-1.50;99.90;;;;;;5074193;28;20225;-87
2023/02/27 07:31:13;;;;;;;9.87;5.40;;;-1.30;99.90;;;;;;5074256;28;20655;-87
2023/02/27 07:33:40;;;;;;;10.60;5.77;;;-1.00;99.90;;;;;;5071843;28;20206;-87
2023/02/27 07:36:07;;;;;;;11.77;5.63;;;-0.70;99.90;;;;;;5068670;28;20297;-87
2023/02/27 07:38:34;;;;;;;10.40;5.90;;;-0.30;99.90;;;;;;5066508;28;20222;-87
2023/02/27 07:41:02;;;;;;;10.53;5.40;;;0.00;99.90;;;;;;5074624;28;20202;-87
2023/02/27 07:43:29;;;;;;;10.10;5.17;;;0.60;99.90;;;;;;5074537;28;20195;-87
2023/02/27 07:46:03;;;;;;;12.87;5.30;;;1.60;99.90;;;;;;5074752;28;20206;-87
2023/02/27 07:48:30;;;;;;;10.00;5.00;;;3.00;99.90;;;;;;5074598;28;20628;-87
2023/02/27 07:50:57;;;;;;;8.63;4.67;;;4.30;99.90;;;;;;5074632;28;20213;-88
2023/02/27 07:53:24;;;;;;;6.43;4.30;;;2.70;99.90;;;;;;5074080;28;20217;-88
2023/02/27 07:55:51;;;;;;;8.40;4.47;;;1.70;99.90;;;;;;5074429;28;20202;-88
2023/02/27 07:58:19;;;;;;;10.47;4.90;;;1.00;99.90;;;;;;5074256;28;20209;-87
2023/02/27 08:00:46;;;;;;;7.33;4.37;;;1.80;99.90;;;;;;5073694;28;20210;-87
2023/02/27 08:03:12;;;;;;;7.80;4.60;;;1.40;99.90;;;;;;5074018;28;20210;-88
2023/02/27 08:05:39;;;;;;;9.27;4.80;;;1.50;99.90;;;;;;5074638;28;20217;-87
2023/02/27 08:08:06;;;;;;;11.97;5.20;;;1.50;99.90;;;;;;5073793;28;20567;-87
2023/02/27 08:10:33;;;;;;;7.73;4.70;;;1.30;99.90;;;;;;5074493;28;20199;-87
2023/02/27 08:13:00;;;;;;;8.03;4.83;;;1.40;99.90;;;;;;5073470;28;20202;-87
2023/02/27 08:15:28;;;;;;;9.13;5.20;;;1.60;99.90;;;;;;5073890;28;20194;-88
2023/02/27 08:17:54;;;;;;;10.20;4.83;;;1.90;99.90;;;;;;5065496;28;20230;-87
2023/02/27 08:20:22;;;;;;;8.87;5.20;;;2.00;99.90;;;;;;5074288;28;20226;-87
2023/02/27 08:22:49;;;;;;;11.30;5.93;;;2.20;99.90;;;;;;5073311;28;20203;-87
2023/02/27 08:25:16;;;;;;;9.03;5.80;;;3.00;99.90;;;;;;5066334;28;20206;-87
2023/02/27 08:27:43;;;;;;;8.53;5.00;;;3.80;99.90;;;;;;5064745;28;20230;-88
2023/02/27 08:30:12;;;;;;;12.70;4.77;;;4.30;99.90;;;;;;5073459;28;20211;-88
2023/02/27 08:32:40;;;;;;;11.53;4.97;;;3.40;99.90;;;;;;5073923;28;20210;-88
2023/02/27 08:35:07;;;;;;;10.90;5.10;;;2.70;99.90;;;;;;5073575;28;20202;-88
2023/02/27 08:37:34;;;;;;;11.33;5.43;;;2.10;99.90;;;;;;5073017;28;20230;-87
2023/02/27 08:40:01;;;;;;;9.43;5.63;;;2.30;99.90;;;;;;5073898;28;20237;-88
2023/02/27 08:42:28;;;;;;;9.87;5.60;;;3.30;99.90;;;;;;5074009;28;20210;-88
2023/02/27 08:44:55;;;;;;;9.87;5.57;;;4.30;99.90;;;;;;5073879;28;20221;-88
2023/02/27 08:47:22;;;;;;;13.13;5.57;;;4.10;99.90;;;;;;5074310;28;20325;-88
2023/02/27 08:49:50;;;;;;;8.70;5.17;;;3.00;99.90;;;;;;5072905;28;20202;-88
2023/02/27 08:52:16;;;;;;;9.40;5.27;;;2.60;99.90;;;;;;5073519;28;20202;-87
2023/02/27 08:54:44;;;;;;;9.17;5.20;;;3.50;99.90;;;;;;5072689;28;20659;-88
2023/02/27 08:57:10;;;;;;;11.10;5.60;;;3.60;99.90;;;;;;5073614;28;20232;-88
2023/02/27 08:59:37;;;;;;;10.73;6.00;;;3.70;99.90;;;;;;5073316;28;20238;-88
2023/02/27 09:02:05;;;;;;;11.07;5.70;;;4.30;99.90;;;;;;5072853;28;20203;-88
2023/02/27 09:04:31;;;;;;;8.60;5.40;;;3.90;99.90;;;;;;5067415;28;20221;-88
2023/02/27 09:07:00;;;;;;;12.53;6.70;;;3.70;99.90;;;;;;5066318;28;20699;-88
2023/02/27 09:09:26;;;;;;;9.53;5.40;;;2.80;99.90;;;;;;5068659;28;20289;-88
2023/02/27 09:11:53;;;;;;;12.20;5.80;;;3.20;99.90;;;;;;5065617;28;20202;-88
2023/02/27 09:14:21;;;;;;;9.70;5.23;;;3.00;99.90;;;;;;5063195;28;20214;-88
2023/02/27 09:16:47;;;;;;;12.40;5.70;;;3.40;99.90;;;;;;5072807;28;20234;-88
2023/02/27 09:19:14;;;;;;;8.37;4.90;;;3.30;99.90;;;;;;5073111;28;20690;-88
2023/02/27 09:21:41;;;;;;;12.83;5.50;;;3.40;99.90;;;;;;5072190;28;20667;-87
2023/02/27 09:24:10;;;;;;;11.97;6.00;;;2.90;99.90;;;;;;5073176;28;20214;-88
2023/02/27 09:26:37;;;;;;;10.63;5.23;;;2.70;99.90;;;;;;5071811;28;20283;-88
2023/02/27 09:29:04;;;;;;;11.60;5.50;;;2.40;99.90;;;;;;5065957;28;20207;-87
2023/02/27 09:31:30;;;;;;;12.30;6.07;;;2.30;99.90;;;;;;5063393;28;20251;-87
2023/02/27 09:33:57;;;;;;;9.77;5.03;;;2.30;99.90;;;;;;5066016;28;20544;-87
2023/02/27 09:36:24;;;;;;;9.77;5.53;;;2.30;99.90;;;;;;5072540;28;20214;-87
2023/02/27 09:38:51;;;;;;;11.17;5.37;;;2.40;99.90;;;;;;5072523;28;20198;-87
2023/02/27 09:41:40;;;;;;;14.53;5.83;;;2.50;99.90;;;;;;5071990;28;20205;-87
2023/02/27 09:44:18;;;;;;;8.13;5.23;;;3.00;99.90;;;;;;5072535;28;20747;-88
2023/02/27 09:46:45;;;;;;;9.83;5.40;;;3.10;99.90;;;;;;5071836;28;20241;-88
2023/02/27 09:49:16;;;;;;;11.30;5.80;;;3.00;99.90;;;;;;5072799;28;20208;-88
2023/02/27 09:51:43;;;;;;;11.70;5.23;;;3.50;99.90;;;;;;5071916;28;20207;-88
2023/02/27 09:54:11;;;;;;;12.07;5.30;;;3.40;99.90;;;;;;5072106;28;20236;-88
2023/02/27 09:56:47;;;;;;;11.47;4.93;;;3.50;99.90;;;;;;5072139;28;20233;-88
2023/02/27 09:59:20;;;;;;;14.47;5.70;;;3.70;99.90;;;;;;5072287;28;20230;-88
2023/02/27 10:01:51;;;;;;;9.43;4.80;;;3.80;99.90;;;;;;5072364;28;20190;-88
2023/02/27 10:04:36;;;;;;;11.00;5.30;;;3.60;99.90;;;;;;5072482;28;20201;-89
2023/02/27 10:07:12;;;;;;;10.93;5.10;;;3.80;99.90;;;;;;5072490;28;20236;-88
2023/02/27 10:09:49;;;;;;;10.83;5.10;;;3.80;99.90;;;;;;5072984;28;20225;-88
2023/02/27 10:12:28;;;;;;;10.67;4.70;;;4.10;99.90;;;;;;5070852;28;20295;-89
2023/02/27 10:14:58;;;;;;;12.83;5.50;;;4.20;99.90;;;;;;5071830;28;20221;-88
2023/02/27 10:17:30;;;;;;;11.83;4.90;;;4.20;99.90;;;;;;5072495;28;20233;-88
2023/02/27 10:19:59;;;;;;;8.80;4.57;;;4.50;99.90;;;;;;5072198;28;20225;-89
2023/02/27 10:22:30;;;;;;;10.17;4.33;;;4.30;99.90;;;;;;5072096;28;20194;-88
2023/02/27 10:25:02;;;;;;;15.23;5.03;;;4.30;99.90;;;;;;5072307;28;20205;-88
2023/02/27 10:27:31;;;;;;;9.60;4.80;;;4.40;99.90;;;;;;5072015;28;20218;-88
2023/02/27 10:30:14;;;;;;;12.37;4.90;;;4.40;99.90;;;;;;5072307;28;20203;-89
2023/02/27 10:32:41;;;;;;;9.67;4.30;;;4.70;99.90;;;;;;5072044;28;20198;-88
2023/02/27 10:35:10;;;;;;;9.50;4.47;;;4.60;99.90;;;;;;5072143;28;20209;-89
2023/02/27 10:37:43;;;;;;;10.63;4.33;;;4.60;99.90;;;;;;5072378;28;20221;-88
2023/02/27 10:40:15;;;;;;;10.97;4.03;;;4.80;99.90;;;;;;5072009;28;20225;-88
2023/02/27 10:42:43;;;;;;;6.43;3.90;;;4.90;99.90;;;;;;5078142;28;20194;-88
2023/02/27 10:45:14;;;;;;;12.13;4.50;;;5.10;99.90;;;;;;5078730;28;20205;-88
2023/02/27 10:47:42;;;;;;;8.20;3.33;;;5.00;99.90;;;;;;5078727;28;20264;-88
2023/02/27 10:50:21;;;;;;;3.60;1.97;;;4.80;99.90;;;;;;5079024;28;20209;-88
2023/02/27 10:52:49;;;;;;;3.73;2.10;;;4.50;99.90;;;;;;5078847;28;20200;-88
2023/02/27 10:55:19;;;;;;;8.57;2.97;;;4.70;99.90;;;;;;5079119;28;20202;-88
2023/02/27 10:57:47;;;;;;;6.13;2.63;;;4.60;99.90;;;;;;5078710;28;20232;-88
2023/02/27 11:00:32;;;;;;;4.37;2.63;;;4.60;99.90;;;;;;5078575;28;20687;-89
2023/02/27 11:02:59;;;;;;;7.57;2.03;;;4.40;99.90;;;;;;5078557;28;20259;-88
2023/02/27 11:05:28;;;;;;;4.00;1.60;;;4.20;99.90;;;;;;5078695;28;20206;-88
2023/02/27 11:07:57;;;;;;;3.23;1.70;;;3.80;99.90;;;;;;5078337;28;20243;-88
2023/02/27 11:10:25;;;;;;;6.00;2.10;;;4.20;99.90;;;;;;5078509;28;20198;-88
2023/02/27 11:13:02;;;;;;;7.73;2.40;;;4.60;99.90;;;;;;5078302;28;20206;-88
2023/02/27 11:15:31;;;;;;;3.93;1.60;;;4.60;99.90;;;;;;5078465;28;20675;-89
2023/02/27 11:18:18;;;;;;;4.80;2.33;;;4.50;99.90;;;;;;5078400;28;20269;-88
2023/02/27 11:20:49;;;;;;;3.30;1.87;;;4.60;99.90;;;;;;5078516;28;20585;-88
2023/02/27 11:23:18;;;;;;;6.40;2.77;;;4.60;99.90;;;;;;5078448;28;20214;-88
2023/02/27 11:25:45;;;;;;;5.90;2.97;;;4.60;99.90;;;;;;5078436;28;20194;-88
2023/02/27 11:28:21;;;;;;;8.80;3.10;;;4.60;99.90;;;;;;5078649;28;20199;-89
2023/02/27 11:30:56;;;;;;;5.83;2.80;;;4.90;99.90;;;;;;5078493;28;20222;-89
2023/02/27 11:33:24;;;;;;;5.77;2.97;;;4.70;99.90;;;;;;5078117;28;20727;-88
2023/02/27 11:35:53;;;;;;;6.57;3.50;;;4.80;99.90;;;;;;5078319;28;20217;-89
2023/02/27 11:38:23;;;;;;;5.13;2.87;;;4.90;99.90;;;;;;5078182;28;20691;-88
2023/02/27 11:40:53;;;;;;;4.93;2.90;;;4.70;99.90;;;;;;5078167;28;20229;-88
2023/02/27 11:43:23;;;;;;;6.53;2.80;;;4.80;99.90;;;;;;5078047;28;20190;-88
2023/02/27 11:45:53;;;;;;;5.83;2.80;;;5.30;99.90;;;;;;5078226;28;20198;-89
2023/02/27 11:48:24;;;;;;;7.83;3.10;;;5.10;99.90;;;;;;5070967;28;20221;-88
2023/02/27 11:51:23;;;;;;;6.10;3.50;;;4.90;99.90;;;;;;5064666;28;20203;-88
2023/02/27 11:54:13;;;;;;;4.50;2.80;;;5.10;99.90;;;;;;5061146;28;20225;-88
2023/02/27 11:56:43;;;;;;;6.83;3.10;;;5.00;99.90;;;;;;5074678;28;20229;-89
2023/02/27 11:59:29;;;;;;;6.63;3.07;;;4.30;99.90;;;;;;5074017;28;20210;-88
2023/02/27 12:02:03;;;;;;;7.20;3.63;;;4.10;99.90;;;;;;5073729;28;20201;-88
2023/02/27 12:04:41;;;;;;;10.17;4.00;;;3.90;99.90;;;;;;5074339;28;20233;-88
2023/02/27 12:07:17;;;;;;;5.53;3.13;;;4.30;99.90;;;;;;5074496;28;20252;-88
2023/02/27 12:09:50;;;;;;;9.83;3.47;;;4.70;99.90;;;;;;5073380;28;20208;-87
2023/02/27 12:12:22;;;;;;;8.10;3.47;;;5.00;99.90;;;;;;5074506;28;20213;-88
2023/02/27 12:14:57;;;;;;;6.93;3.67;;;5.20;99.90;;;;;;5073906;28;20652;-89
2023/02/27 12:17:29;;;;;;;5.13;2.80;;;5.60;99.90;;;;;;5074550;28;20229;-89
2023/02/27 12:20:08;;;;;;;6.07;3.07;;;5.60;99.90;;;;;;5074524;28;20222;-88
2023/02/27 12:22:37;;;;;;;6.60;3.60;;;5.90;99.90;;;;;;5071714;28;20209;-89
2023/02/27 12:25:10;;;;;;;6.00;3.00;;;5.80;99.90;;;;;;5058001;28;20205;-88
2023/02/27 12:27:48;;;;;;;7.73;3.30;;;5.50;99.90;;;;;;5073366;28;20749;-89
2023/02/27 12:30:22;;;;;;;4.77;2.70;;;5.20;99.90;;;;;;5073660;28;20606;-89
2023/02/27 12:32:55;;;;;;;3.73;2.33;;;5.20;99.90;;;;;;5073885;28;20261;-88
2023/02/27 12:35:27;;;;;;;6.70;3.37;;;5.20;99.90;;;;;;5074224;28;20685;-88
2023/02/27 12:37:54;;;;;;;5.43;3.10;;;5.40;99.90;;;;;;5076619;28;20241;-88
2023/02/27 12:40:29;;;;;;;5.70;3.00;;;5.50;99.90;;;;;;5074515;28;20233;-88
2023/02/27 12:43:21;;;;;;;3.47;2.60;;;5.80;99.90;;;;;;5072626;28;20205;-89
2023/02/27 12:45:56;;;;;;;6.30;2.70;;;5.60;99.90;;;;;;5063993;28;20207;-88
2023/02/27 12:48:35;;;;;;;3.07;2.60;;;5.70;99.90;;;;;;5062283;28;20224;-89
2023/02/27 12:51:15;;;;;;;5.67;2.77;;;5.90;99.90;;;;;;5058390;28;20210;-88
2023/02/27 12:54:01;;;;;;;5.83;2.67;;;6.00;99.90;;;;;;5061393;28;20695;-89
2023/02/27 12:56:40;;;;;;;7.07;2.73;;;6.60;99.90;;;;;;5069077;28;20222;-88
2023/02/27 12:59:22;;;;;;;4.27;2.13;;;7.00;99.90;;;;;;5067777;28;20214;-88
2023/02/27 13:01:58;;;;;;;3.73;2.27;;;7.30;99.90;;;;;;5066576;28;20219;-88
2023/02/27 13:04:32;;;;;;;5.77;2.50;;;6.90;99.90;;;;;;5068041;28;20208;-88
2023/02/27 13:07:04;;;;;;;5.10;2.67;;;5.70;99.90;;;;;;5064144;28;20213;-89
2023/02/27 13:09:40;;;;;;;4.07;2.40;;;4.80;99.90;;;;;;5064068;28;20215;-88